N77UK VNKT-ESSA
Flight info
| Callsign | N77UK |
|---|---|
| Flight time | N/A |
| Altitude | 36000 |
| Route | DARKE1F NARAN B345 LKN M890 SULOM L509 TAPIS P173 DAVET B475 NINOP/N0491F380 B475 DOLOS B449 INRAK A240 KRS DCT LARGI N701 BAKUV L850 ADEKI DCT BADIR DCT TETRO M10 SARPI DCT KARDE/N0478F400 DCT SIN DCT ODERO DCT GEMTO DCT PENOR DCT NILUG |
| Aircraft | B772/H-SDE2E3FGHIJ5LORVWXY/LB1D1 |
Departure
| Time | 2026-04-30 19:02 |
|---|---|
| Airport | Tribhuvan International Airport (VNKT) |
Arrival
| Time | N/A |
|---|---|
| Airport | Stockholm-Arlanda Airport (ESSA) |
| Time | Latitude | Longitude | Altitude | Speed | Heading |
|---|---|---|---|---|---|
| 2026-04-30 18:49 | 27.69752 | 85.35741 | 4402 ft | 0 kts | 292° |
| 2026-04-30 18:57 | 27.69718 | 85.35727 | 4402 ft | 8 kts | 159° |
| 2026-04-30 18:57 | 27.69681 | 85.35770 | 4402 ft | 8 kts | 144° |
| 2026-04-30 18:57 | 27.69630 | 85.35778 | 4402 ft | 8 kts | 186° |
| 2026-04-30 18:58 | 27.69519 | 85.35732 | 4401 ft | 12 kts | 202° |
| 2026-04-30 18:58 | 27.69435 | 85.35692 | 4399 ft | 16 kts | 202° |
| 2026-04-30 18:58 | 27.69282 | 85.35623 | 4397 ft | 31 kts | 202° |
| 2026-04-30 18:59 | 27.69029 | 85.35617 | 4395 ft | 15 kts | 175° |
| 2026-04-30 19:00 | 27.68511 | 85.35391 | 4400 ft | 22 kts | 202° |
| 2026-04-30 19:00 | 27.68369 | 85.35325 | 4403 ft | 22 kts | 204° |
| 2026-04-30 19:00 | 27.68180 | 85.35193 | 4404 ft | 9 kts | 149° |
| 2026-04-30 19:01 | 27.68299 | 85.35295 | 4405 ft | 45 kts | 22° |
| 2026-04-30 19:01 | 27.68808 | 85.35527 | 4393 ft | 114 kts | 21° |
| 2026-04-30 19:02 | 27.70923 | 85.36501 | 4805 ft | 188 kts | 22° |
| 2026-04-30 19:02 | 27.73210 | 85.37975 | 6104 ft | 196 kts | 51° |
| 2026-04-30 19:03 | 27.74078 | 85.41154 | 6526 ft | 236 kts | 91° |
| 2026-04-30 19:03 | 27.73534 | 85.44873 | 7293 ft | 250 kts | 124° |
| 2026-04-30 19:04 | 27.70466 | 85.46603 | 8295 ft | 265 kts | 183° |
| 2026-04-30 19:04 | 27.67386 | 85.44492 | 9271 ft | 279 kts | 241° |
| 2026-04-30 19:05 | 27.67048 | 85.40139 | 10259 ft | 293 kts | 283° |
| 2026-04-30 19:05 | 27.68263 | 85.35402 | 10623 ft | 336 kts | 287° |
| 2026-04-30 19:06 | 27.69679 | 85.30074 | 11128 ft | 372 kts | 286° |
| 2026-04-30 19:06 | 27.70402 | 85.27225 | 11617 ft | 382 kts | 285° |
| 2026-04-30 19:06 | 27.71843 | 85.21367 | 13058 ft | 389 kts | 285° |
| 2026-04-30 19:07 | 27.73284 | 85.15421 | 14395 ft | 396 kts | 285° |
| 2026-04-30 19:07 | 27.74003 | 85.12447 | 14998 ft | 398 kts | 285° |
| 2026-04-30 19:08 | 27.75621 | 85.06470 | 15954 ft | 397 kts | 287° |
| 2026-04-30 19:08 | 27.75720 | 85.00219 | 16933 ft | 403 kts | 257° |
| 2026-04-30 19:08 | 27.75122 | 84.97134 | 17405 ft | 404 kts | 260° |
| 2026-04-30 19:09 | 27.74279 | 84.90800 | 18470 ft | 409 kts | 262° |
| 2026-04-30 19:09 | 27.73892 | 84.87608 | 18929 ft | 411 kts | 262° |
| 2026-04-30 19:09 | 27.73494 | 84.84434 | 19350 ft | 414 kts | 262° |
| 2026-04-30 19:10 | 27.72645 | 84.77950 | 20210 ft | 420 kts | 262° |
| 2026-04-30 19:10 | 27.71769 | 84.71381 | 21018 ft | 425 kts | 262° |
| 2026-04-30 19:11 | 27.71325 | 84.68075 | 21431 ft | 428 kts | 262° |
| 2026-04-30 19:11 | 27.70414 | 84.61366 | 22104 ft | 436 kts | 262° |
| 2026-04-30 19:11 | 27.69951 | 84.57970 | 22497 ft | 439 kts | 262° |
| 2026-04-30 19:12 | 27.69484 | 84.54562 | 22902 ft | 441 kts | 262° |
| 2026-04-30 19:12 | 27.69014 | 84.51129 | 23270 ft | 443 kts | 262° |
| 2026-04-30 19:12 | 27.68543 | 84.47685 | 23596 ft | 446 kts | 262° |
| 2026-04-30 19:13 | 27.67567 | 84.40730 | 24264 ft | 450 kts | 261° |
| 2026-04-30 19:13 | 27.66358 | 84.33833 | 24939 ft | 452 kts | 259° |
| 2026-04-30 19:13 | 27.65715 | 84.30353 | 25259 ft | 454 kts | 260° |
| 2026-04-30 19:14 | 27.65073 | 84.26866 | 25625 ft | 454 kts | 260° |
| 2026-04-30 19:14 | 27.64435 | 84.23360 | 25916 ft | 457 kts | 260° |
| 2026-04-30 19:14 | 27.63803 | 84.19845 | 26192 ft | 459 kts | 261° |
| 2026-04-30 19:14 | 27.63171 | 84.16310 | 26498 ft | 461 kts | 261° |
| 2026-04-30 19:15 | 27.62538 | 84.12758 | 26806 ft | 462 kts | 261° |
| 2026-04-30 19:15 | 27.61266 | 84.05623 | 27404 ft | 465 kts | 261° |
| 2026-04-30 19:15 | 27.60626 | 84.02046 | 27687 ft | 467 kts | 261° |
| 2026-04-30 19:16 | 27.59983 | 83.98452 | 27960 ft | 469 kts | 261° |
| 2026-04-30 19:16 | 27.59335 | 83.94844 | 28224 ft | 470 kts | 261° |
| 2026-04-30 19:16 | 27.58031 | 83.87599 | 28804 ft | 471 kts | 261° |
| 2026-04-30 19:17 | 27.57378 | 83.83982 | 29090 ft | 471 kts | 261° |
| 2026-04-30 19:17 | 27.56066 | 83.76725 | 29481 ft | 475 kts | 261° |
| 2026-04-30 19:17 | 27.55403 | 83.73061 | 29669 ft | 477 kts | 261° |
| 2026-04-30 19:18 | 27.54296 | 83.66972 | 30106 ft | 476 kts | 261° |
| 2026-04-30 19:18 | 27.53420 | 83.62159 | 30542 ft | 472 kts | 261° |
| 2026-04-30 19:18 | 27.52761 | 83.58549 | 30843 ft | 470 kts | 261° |
| 2026-04-30 19:19 | 27.52101 | 83.54932 | 31167 ft | 468 kts | 261° |
| 2026-04-30 19:19 | 27.51446 | 83.51350 | 31525 ft | 464 kts | 262° |
| 2026-04-30 19:19 | 27.50133 | 83.44279 | 32196 ft | 460 kts | 260° |
| 2026-04-30 19:20 | 27.49253 | 83.40801 | 32417 ft | 463 kts | 256° |
| 2026-04-30 19:20 | 27.48244 | 83.37356 | 32650 ft | 463 kts | 256° |
| 2026-04-30 19:20 | 27.46247 | 83.30474 | 33174 ft | 461 kts | 256° |
| 2026-04-30 19:21 | 27.45278 | 83.27086 | 33450 ft | 460 kts | 256° |
| 2026-04-30 19:21 | 27.43315 | 83.20205 | 33934 ft | 458 kts | 257° |
| 2026-04-30 19:22 | 27.41383 | 83.13405 | 34369 ft | 456 kts | 258° |
| 2026-04-30 19:22 | 27.38520 | 83.03228 | 34951 ft | 455 kts | 258° |
| 2026-04-30 19:23 | 27.35645 | 82.93043 | 35483 ft | 455 kts | 258° |
| 2026-04-30 19:24 | 27.33724 | 82.86262 | 35721 ft | 457 kts | 258° |
| 2026-04-30 19:24 | 27.32768 | 82.82889 | 35777 ft | 458 kts | 258° |
| 2026-04-30 19:25 | 27.27948 | 82.65973 | 35770 ft | 449 kts | 259° |
| 2026-04-30 19:26 | 27.24138 | 82.52641 | 35803 ft | 448 kts | 259° |
| 2026-04-30 19:27 | 27.21263 | 82.42615 | 35804 ft | 451 kts | 259° |
| 2026-04-30 19:28 | 27.18371 | 82.32568 | 35798 ft | 453 kts | 259° |
| 2026-04-30 19:29 | 27.14468 | 82.19048 | 35797 ft | 456 kts | 259° |
| 2026-04-30 19:30 | 27.10656 | 82.05529 | 35792 ft | 455 kts | 259° |
| 2026-04-30 19:31 | 27.06827 | 81.91983 | 35789 ft | 454 kts | 259° |
| 2026-04-30 19:31 | 27.03951 | 81.81859 | 35788 ft | 453 kts | 259° |
| 2026-04-30 19:32 | 27.02031 | 81.75115 | 35786 ft | 453 kts | 259° |
| 2026-04-30 19:32 | 27.00113 | 81.68391 | 35785 ft | 452 kts | 259° |
| 2026-04-30 19:33 | 26.98193 | 81.61676 | 35776 ft | 452 kts | 259° |
| 2026-04-30 19:33 | 26.96283 | 81.55007 | 35785 ft | 452 kts | 259° |
| 2026-04-30 19:34 | 26.94361 | 81.48305 | 35786 ft | 452 kts | 259° |
| 2026-04-30 19:35 | 26.91306 | 81.38270 | 35787 ft | 454 kts | 257° |
| 2026-04-30 19:35 | 26.89193 | 81.31606 | 35783 ft | 454 kts | 258° |
| 2026-04-30 19:36 | 26.87102 | 81.24966 | 35780 ft | 455 kts | 258° |
| 2026-04-30 19:36 | 26.83948 | 81.14915 | 35802 ft | 456 kts | 258° |
| 2026-04-30 19:37 | 26.81837 | 81.08203 | 35805 ft | 457 kts | 258° |
| 2026-04-30 19:37 | 26.79717 | 81.01477 | 35803 ft | 458 kts | 258° |
| 2026-04-30 19:38 | 26.77771 | 80.94734 | 35794 ft | 445 kts | 269° |
| 2026-04-30 19:38 | 26.77743 | 80.91340 | 35806 ft | 430 kts | 284° |
| 2026-04-30 19:38 | 26.78417 | 80.88144 | 35804 ft | 425 kts | 292° |
| 2026-04-30 19:39 | 26.81099 | 80.82323 | 35793 ft | 420 kts | 311° |
| 2026-04-30 19:39 | 26.84986 | 80.77381 | 35811 ft | 424 kts | 311° |
| 2026-04-30 19:40 | 26.88229 | 80.73224 | 35818 ft | 428 kts | 311° |
| 2026-04-30 19:40 | 26.92136 | 80.68147 | 35824 ft | 432 kts | 311° |
| 2026-04-30 19:41 | 26.96055 | 80.63011 | 35817 ft | 434 kts | 311° |
| 2026-04-30 19:41 | 27.00608 | 80.57027 | 35820 ft | 434 kts | 311° |
| 2026-04-30 19:42 | 27.03859 | 80.52748 | 35786 ft | 432 kts | 311° |
| 2026-04-30 19:42 | 27.07747 | 80.47625 | 35808 ft | 431 kts | 311° |
| 2026-04-30 19:43 | 27.11629 | 80.42507 | 35813 ft | 429 kts | 311° |
| 2026-04-30 19:44 | 27.17425 | 80.34853 | 35809 ft | 428 kts | 311° |
| 2026-04-30 19:44 | 27.21247 | 80.29798 | 35803 ft | 427 kts | 311° |
| 2026-04-30 19:45 | 27.25083 | 80.24719 | 35807 ft | 426 kts | 311° |
| 2026-04-30 19:45 | 27.28912 | 80.19644 | 35808 ft | 425 kts | 311° |
| 2026-04-30 19:46 | 27.32739 | 80.14564 | 35787 ft | 425 kts | 311° |
| 2026-04-30 19:46 | 27.36558 | 80.09491 | 35795 ft | 425 kts | 311° |
| 2026-04-30 19:47 | 27.40387 | 80.04398 | 35803 ft | 426 kts | 311° |
| 2026-04-30 19:47 | 27.44219 | 79.99294 | 35804 ft | 428 kts | 311° |
| 2026-04-30 19:48 | 27.48049 | 79.94187 | 35800 ft | 429 kts | 311° |
| 2026-04-30 19:48 | 27.51908 | 79.89035 | 35795 ft | 430 kts | 311° |
| 2026-04-30 19:49 | 27.55773 | 79.83868 | 35794 ft | 431 kts | 311° |
| 2026-04-30 19:49 | 27.61574 | 79.76102 | 35783 ft | 431 kts | 311° |
| 2026-04-30 19:50 | 27.65416 | 79.70951 | 35787 ft | 431 kts | 311° |
| 2026-04-30 19:50 | 27.69292 | 79.65775 | 35805 ft | 432 kts | 312° |
| 2026-04-30 19:51 | 27.73509 | 79.60961 | 35794 ft | 431 kts | 315° |
| 2026-04-30 19:51 | 27.77784 | 79.56204 | 35783 ft | 431 kts | 315° |
| 2026-04-30 19:52 | 27.82050 | 79.51431 | 35783 ft | 431 kts | 315° |
| 2026-04-30 19:52 | 27.86306 | 79.46654 | 35783 ft | 430 kts | 315° |
| 2026-04-30 19:53 | 27.90523 | 79.41911 | 35766 ft | 430 kts | 315° |
| 2026-04-30 19:53 | 27.94763 | 79.37137 | 35773 ft | 429 kts | 315° |
| 2026-04-30 19:54 | 27.99004 | 79.32357 | 35774 ft | 429 kts | 315° |
| 2026-04-30 19:54 | 28.03235 | 79.27583 | 35773 ft | 429 kts | 315° |
| 2026-04-30 19:55 | 28.07440 | 79.22832 | 35773 ft | 429 kts | 315° |
| 2026-04-30 19:55 | 28.11667 | 79.18050 | 35774 ft | 430 kts | 315° |
| 2026-04-30 19:56 | 28.15905 | 79.13251 | 35770 ft | 430 kts | 315° |
| 2026-04-30 19:56 | 28.20135 | 79.08455 | 35764 ft | 430 kts | 315° |
| 2026-04-30 19:57 | 28.24361 | 79.03658 | 35777 ft | 430 kts | 315° |
| 2026-04-30 19:57 | 28.28595 | 78.98846 | 35766 ft | 430 kts | 315° |
| 2026-04-30 19:58 | 28.32824 | 78.94034 | 35769 ft | 430 kts | 315° |
| 2026-04-30 19:58 | 28.37012 | 78.89262 | 35772 ft | 429 kts | 315° |
| 2026-04-30 19:59 | 28.41232 | 78.84448 | 35773 ft | 429 kts | 315° |
| 2026-04-30 20:00 | 28.47652 | 78.77347 | 35776 ft | 429 kts | 319° |
| 2026-04-30 20:00 | 28.52402 | 78.73235 | 35785 ft | 429 kts | 321° |
| 2026-04-30 20:01 | 28.59531 | 78.67074 | 35764 ft | 429 kts | 321° |
| 2026-04-30 20:01 | 28.64272 | 78.62952 | 35776 ft | 429 kts | 321° |
| 2026-04-30 20:02 | 28.71353 | 78.56784 | 35778 ft | 429 kts | 321° |
| 2026-04-30 20:03 | 28.78462 | 78.50582 | 35788 ft | 429 kts | 321° |
| 2026-04-30 20:03 | 28.83202 | 78.46441 | 35780 ft | 429 kts | 321° |
| 2026-04-30 20:04 | 28.87939 | 78.42297 | 35781 ft | 429 kts | 321° |
| 2026-04-30 20:05 | 28.95038 | 78.36079 | 35782 ft | 429 kts | 321° |
| 2026-04-30 20:05 | 29.02104 | 78.29879 | 35786 ft | 428 kts | 321° |
| 2026-04-30 20:06 | 29.06831 | 78.25724 | 35795 ft | 428 kts | 321° |
| 2026-04-30 20:06 | 29.11562 | 78.21562 | 35790 ft | 428 kts | 320° |
| 2026-04-30 20:07 | 29.16276 | 78.17409 | 35784 ft | 427 kts | 320° |
| 2026-04-30 20:08 | 29.23333 | 78.11183 | 35796 ft | 426 kts | 320° |
| 2026-04-30 20:08 | 29.28033 | 78.07031 | 35790 ft | 426 kts | 320° |
| 2026-04-30 20:09 | 29.32694 | 78.02907 | 35806 ft | 426 kts | 321° |
| 2026-04-30 20:09 | 29.39719 | 77.96685 | 35802 ft | 425 kts | 321° |
| 2026-04-30 20:10 | 29.46723 | 77.90468 | 35791 ft | 424 kts | 320° |
| 2026-04-30 20:11 | 29.53731 | 77.84237 | 35799 ft | 425 kts | 320° |
| 2026-04-30 20:11 | 29.58403 | 77.80077 | 35800 ft | 425 kts | 321° |
| 2026-04-30 20:12 | 29.65405 | 77.73832 | 35797 ft | 426 kts | 320° |
| 2026-04-30 20:13 | 29.70096 | 77.69642 | 35797 ft | 427 kts | 320° |
| 2026-04-30 20:13 | 29.74790 | 77.65445 | 35797 ft | 427 kts | 320° |
| 2026-04-30 20:14 | 29.79477 | 77.61248 | 35796 ft | 427 kts | 320° |
| 2026-04-30 20:14 | 29.84178 | 77.57034 | 35791 ft | 427 kts | 320° |
| 2026-04-30 20:15 | 29.88841 | 77.52849 | 35798 ft | 427 kts | 320° |
| 2026-04-30 20:15 | 29.93538 | 77.48628 | 35794 ft | 427 kts | 320° |
| 2026-04-30 20:16 | 29.98281 | 77.44493 | 35797 ft | 428 kts | 324° |
| 2026-04-30 20:16 | 30.03485 | 77.41098 | 35806 ft | 431 kts | 330° |
| 2026-04-30 20:17 | 30.08864 | 77.38022 | 35810 ft | 431 kts | 330° |
| 2026-04-30 20:17 | 30.14188 | 77.34940 | 35797 ft | 430 kts | 330° |
| 2026-04-30 20:18 | 30.19540 | 77.31829 | 35797 ft | 430 kts | 330° |
| 2026-04-30 20:18 | 30.24889 | 77.28716 | 35805 ft | 430 kts | 330° |
| 2026-04-30 20:19 | 30.30233 | 77.25602 | 35808 ft | 429 kts | 330° |
| 2026-04-30 20:19 | 30.35559 | 77.22462 | 35786 ft | 428 kts | 327° |
| 2026-04-30 20:20 | 30.40265 | 77.18383 | 35806 ft | 424 kts | 317° |
| 2026-04-30 20:20 | 30.44337 | 77.13431 | 35804 ft | 424 kts | 307° |
| 2026-04-30 20:21 | 30.47858 | 77.07990 | 35786 ft | 425 kts | 307° |
| 2026-04-30 20:21 | 30.51410 | 77.02493 | 35790 ft | 426 kts | 307° |
| 2026-04-30 20:22 | 30.54985 | 76.97003 | 35796 ft | 427 kts | 307° |
| 2026-04-30 20:22 | 30.58579 | 76.91493 | 35773 ft | 428 kts | 307° |
| 2026-04-30 20:23 | 30.62147 | 76.86015 | 35721 ft | 428 kts | 307° |
| 2026-04-30 20:23 | 30.65736 | 76.80487 | 35747 ft | 428 kts | 306° |
| 2026-04-30 20:24 | 30.68810 | 76.74550 | 35749 ft | 429 kts | 298° |
| 2026-04-30 20:24 | 30.71176 | 76.68164 | 35750 ft | 431 kts | 294° |
| 2026-04-30 20:25 | 30.74467 | 76.58473 | 35744 ft | 431 kts | 294° |
| 2026-04-30 20:26 | 30.77786 | 76.48735 | 35727 ft | 431 kts | 294° |
| 2026-04-30 20:26 | 30.81089 | 76.39047 | 35749 ft | 431 kts | 294° |
| 2026-04-30 20:27 | 30.85499 | 76.26068 | 35725 ft | 430 kts | 294° |
| 2026-04-30 20:28 | 30.89872 | 76.13151 | 35708 ft | 429 kts | 293° |
| 2026-04-30 20:30 | 30.94955 | 75.98070 | 35709 ft | 428 kts | 293° |
| 2026-04-30 20:31 | 31.01448 | 75.78708 | 35722 ft | 428 kts | 293° |
| 2026-04-30 20:32 | 31.06850 | 75.62511 | 35700 ft | 428 kts | 293° |
| 2026-04-30 20:33 | 31.10080 | 75.52790 | 35705 ft | 428 kts | 293° |
| 2026-04-30 20:34 | 31.12977 | 75.42911 | 35703 ft | 429 kts | 289° |
| 2026-04-30 20:35 | 31.15499 | 75.32906 | 35690 ft | 429 kts | 288° |
| 2026-04-30 20:35 | 31.18039 | 75.22862 | 35693 ft | 430 kts | 288° |
| 2026-04-30 20:36 | 31.19731 | 75.16165 | 35690 ft | 430 kts | 288° |
| 2026-04-30 20:37 | 31.22258 | 75.06136 | 35687 ft | 430 kts | 288° |
| 2026-04-30 20:37 | 31.23945 | 74.99419 | 35684 ft | 430 kts | 288° |
| 2026-04-30 20:38 | 31.25625 | 74.92713 | 35689 ft | 430 kts | 288° |
| 2026-04-30 20:38 | 31.27301 | 74.86006 | 35689 ft | 430 kts | 288° |
| 2026-04-30 20:39 | 31.29807 | 74.75944 | 35683 ft | 430 kts | 288° |
| 2026-04-30 20:40 | 31.32295 | 74.65925 | 35694 ft | 430 kts | 288° |
| 2026-04-30 20:40 | 31.34377 | 74.59420 | 35701 ft | 426 kts | 301° |
| 2026-04-30 20:41 | 31.40093 | 74.51485 | 35730 ft | 430 kts | 319° |
| 2026-04-30 20:41 | 31.44868 | 74.47255 | 35725 ft | 431 kts | 320° |
| 2026-04-30 20:42 | 31.49661 | 74.43025 | 35723 ft | 432 kts | 319° |
| 2026-04-30 20:43 | 31.56801 | 74.36631 | 35723 ft | 432 kts | 319° |
| 2026-04-30 20:43 | 31.61573 | 74.32325 | 35713 ft | 433 kts | 319° |
| 2026-04-30 20:44 | 31.68726 | 74.25854 | 35714 ft | 433 kts | 319° |
| 2026-04-30 20:45 | 31.78277 | 74.17197 | 35715 ft | 433 kts | 319° |
| 2026-04-30 20:45 | 31.83003 | 74.12905 | 35717 ft | 432 kts | 319° |
| 2026-04-30 20:46 | 31.92519 | 74.04246 | 35724 ft | 431 kts | 319° |
| 2026-04-30 20:47 | 31.99639 | 73.97752 | 35710 ft | 431 kts | 318° |
| 2026-04-30 20:48 | 32.06718 | 73.91281 | 35724 ft | 431 kts | 318° |
| 2026-04-30 20:48 | 32.11456 | 73.86943 | 35751 ft | 431 kts | 318° |
| 2026-04-30 20:49 | 32.16204 | 73.82591 | 35731 ft | 431 kts | 318° |
| 2026-04-30 20:50 | 32.23307 | 73.76069 | 35730 ft | 431 kts | 318° |
| 2026-04-30 20:50 | 32.28041 | 73.71714 | 35731 ft | 431 kts | 318° |
| 2026-04-30 20:51 | 32.32766 | 73.67362 | 35729 ft | 430 kts | 318° |
| 2026-04-30 20:51 | 32.39846 | 73.60828 | 35721 ft | 430 kts | 318° |
| 2026-04-30 20:52 | 32.44540 | 73.56490 | 35724 ft | 430 kts | 318° |
| 2026-04-30 20:53 | 32.51614 | 73.49940 | 35729 ft | 430 kts | 318° |
| 2026-04-30 20:53 | 32.56333 | 73.45564 | 35729 ft | 430 kts | 317° |
| 2026-04-30 20:54 | 32.63402 | 73.38995 | 35739 ft | 430 kts | 317° |
| 2026-04-30 20:55 | 32.70473 | 73.32412 | 35742 ft | 430 kts | 317° |
| 2026-04-30 20:55 | 32.74989 | 73.27844 | 35736 ft | 426 kts | 311° |
| 2026-04-30 20:56 | 32.80593 | 73.19713 | 35753 ft | 422 kts | 302° |
| 2026-04-30 20:57 | 32.85425 | 73.10957 | 35762 ft | 423 kts | 301° |
| 2026-04-30 20:57 | 32.88656 | 73.05095 | 35764 ft | 424 kts | 301° |
| 2026-04-30 20:58 | 32.93498 | 72.96335 | 35772 ft | 425 kts | 302° |
| 2026-04-30 20:58 | 32.96752 | 72.90444 | 35761 ft | 425 kts | 301° |
| 2026-04-30 20:59 | 33.01625 | 72.81605 | 35788 ft | 426 kts | 301° |
| 2026-04-30 21:00 | 33.08102 | 72.69823 | 35778 ft | 426 kts | 301° |
| 2026-04-30 21:01 | 33.12971 | 72.60940 | 35766 ft | 426 kts | 301° |
| 2026-04-30 21:02 | 33.17827 | 72.52061 | 35766 ft | 425 kts | 301° |
| 2026-04-30 21:02 | 33.21053 | 72.46149 | 35769 ft | 425 kts | 301° |
| 2026-04-30 21:03 | 33.24278 | 72.40232 | 35776 ft | 425 kts | 301° |
| 2026-04-30 21:03 | 33.27504 | 72.34304 | 35769 ft | 425 kts | 301° |
| 2026-04-30 21:04 | 33.30711 | 72.28399 | 35767 ft | 425 kts | 301° |
| 2026-04-30 21:04 | 33.35539 | 72.19491 | 35763 ft | 425 kts | 300° |
| 2026-04-30 21:05 | 33.38756 | 72.13545 | 35761 ft | 425 kts | 300° |
| 2026-04-30 21:05 | 33.41945 | 72.07640 | 35791 ft | 425 kts | 300° |
| 2026-04-30 21:06 | 33.45151 | 72.01693 | 35776 ft | 425 kts | 300° |
| 2026-04-30 21:06 | 33.48357 | 71.95737 | 35766 ft | 425 kts | 300° |
| 2026-04-30 21:07 | 33.51440 | 71.89740 | 35763 ft | 421 kts | 292° |
| 2026-04-30 21:07 | 33.53067 | 71.83042 | 35779 ft | 419 kts | 281° |
| 2026-04-30 21:08 | 33.53349 | 71.76057 | 35781 ft | 422 kts | 269° |
| 2026-04-30 21:08 | 33.52880 | 71.69069 | 35785 ft | 424 kts | 268° |
| 2026-04-30 21:09 | 33.52420 | 71.62008 | 35789 ft | 425 kts | 269° |
| 2026-04-30 21:09 | 33.51984 | 71.54929 | 35778 ft | 426 kts | 269° |
| 2026-04-30 21:10 | 33.51555 | 71.47838 | 35794 ft | 427 kts | 269° |
| 2026-04-30 21:10 | 33.51125 | 71.40766 | 35792 ft | 427 kts | 269° |
| 2026-04-30 21:11 | 33.50689 | 71.33664 | 35784 ft | 427 kts | 269° |
| 2026-04-30 21:11 | 33.50249 | 71.26569 | 35806 ft | 426 kts | 269° |
| 2026-04-30 21:12 | 33.49803 | 71.19484 | 35812 ft | 427 kts | 268° |
| 2026-04-30 21:12 | 33.49358 | 71.12418 | 35812 ft | 427 kts | 268° |
| 2026-04-30 21:13 | 33.49118 | 71.05353 | 35807 ft | 420 kts | 280° |
| 2026-04-30 21:13 | 33.51111 | 70.98799 | 35840 ft | 422 kts | 296° |
| 2026-04-30 21:14 | 33.52712 | 70.95830 | 35831 ft | 427 kts | 307° |
| 2026-04-30 21:14 | 33.54825 | 70.93319 | 35853 ft | 429 kts | 312° |
| 2026-04-30 21:14 | 33.59259 | 70.88482 | 35834 ft | 432 kts | 312° |
| 2026-04-30 21:15 | 33.63660 | 70.83617 | 35850 ft | 432 kts | 311° |
| 2026-04-30 21:15 | 33.68051 | 70.78683 | 35859 ft | 432 kts | 311° |
| 2026-04-30 21:16 | 33.72433 | 70.73721 | 35886 ft | 433 kts | 311° |
| 2026-04-30 21:16 | 33.76823 | 70.68741 | 35878 ft | 434 kts | 311° |
| 2026-04-30 21:17 | 33.81185 | 70.63790 | 35874 ft | 434 kts | 311° |
| 2026-04-30 21:17 | 33.84841 | 70.59636 | 35877 ft | 434 kts | 311° |
| 2026-04-30 21:18 | 33.89231 | 70.54638 | 35870 ft | 434 kts | 311° |
| 2026-04-30 21:18 | 33.93149 | 70.49219 | 35893 ft | 427 kts | 302° |
| 2026-04-30 21:19 | 33.96345 | 70.43209 | 35869 ft | 422 kts | 295° |
| 2026-04-30 21:19 | 33.99088 | 70.36942 | 35858 ft | 422 kts | 295° |
| 2026-04-30 21:20 | 34.01805 | 70.30722 | 35900 ft | 422 kts | 295° |
| 2026-04-30 21:20 | 34.04552 | 70.24461 | 35869 ft | 422 kts | 295° |
| 2026-04-30 21:21 | 34.07301 | 70.18190 | 35873 ft | 422 kts | 295° |
| 2026-04-30 21:22 | 34.11405 | 70.08806 | 35888 ft | 422 kts | 295° |
| 2026-04-30 21:23 | 34.16873 | 69.96268 | 35882 ft | 422 kts | 295° |
| 2026-04-30 21:23 | 34.20970 | 69.86829 | 35887 ft | 423 kts | 295° |
| 2026-04-30 21:24 | 34.23708 | 69.80497 | 35861 ft | 424 kts | 294° |
| 2026-04-30 21:24 | 34.26416 | 69.74211 | 35880 ft | 422 kts | 294° |
| 2026-04-30 21:25 | 34.30482 | 69.64751 | 35902 ft | 421 kts | 294° |
| 2026-04-30 21:26 | 34.34505 | 69.55361 | 35907 ft | 421 kts | 294° |
| 2026-04-30 21:27 | 34.38568 | 69.45888 | 35900 ft | 424 kts | 294° |
| 2026-04-30 21:27 | 34.41280 | 69.39528 | 35905 ft | 426 kts | 294° |
| 2026-04-30 21:28 | 34.45352 | 69.29962 | 35917 ft | 426 kts | 294° |
| 2026-04-30 21:29 | 34.49422 | 69.20381 | 35918 ft | 426 kts | 294° |
| 2026-04-30 21:30 | 34.57510 | 69.05313 | 35930 ft | 428 kts | 301° |
| 2026-04-30 21:31 | 34.66191 | 68.90787 | 35979 ft | 423 kts | 301° |
| 2026-04-30 21:32 | 34.71368 | 68.82084 | 36008 ft | 424 kts | 301° |
| 2026-04-30 21:32 | 34.74818 | 68.76281 | 36014 ft | 426 kts | 301° |
| 2026-04-30 21:33 | 34.80034 | 68.67487 | 36049 ft | 428 kts | 300° |
| 2026-04-30 21:34 | 34.83520 | 68.61597 | 36057 ft | 429 kts | 300° |
| 2026-04-30 21:34 | 34.88742 | 68.52739 | 36077 ft | 430 kts | 300° |
| 2026-04-30 21:35 | 34.92238 | 68.46823 | 36077 ft | 430 kts | 300° |
| 2026-04-30 21:35 | 34.95714 | 68.40905 | 36081 ft | 426 kts | 300° |
| 2026-04-30 21:36 | 34.99135 | 68.35085 | 36098 ft | 424 kts | 300° |
| 2026-04-30 21:37 | 35.05971 | 68.23411 | 36102 ft | 422 kts | 300° |
| 2026-04-30 21:37 | 35.09342 | 68.17466 | 36138 ft | 428 kts | 299° |
| 2026-04-30 21:38 | 35.12748 | 68.11428 | 36083 ft | 433 kts | 299° |
| 2026-04-30 21:38 | 35.16162 | 68.05390 | 36092 ft | 431 kts | 299° |
| 2026-04-30 21:39 | 35.19538 | 67.99413 | 36104 ft | 429 kts | 299° |
| 2026-04-30 21:39 | 35.22927 | 67.93393 | 36083 ft | 429 kts | 299° |
| 2026-04-30 21:40 | 35.26300 | 67.87411 | 36098 ft | 424 kts | 299° |
| 2026-04-30 21:40 | 35.29643 | 67.81468 | 36087 ft | 423 kts | 299° |
| 2026-04-30 21:41 | 35.33022 | 67.75549 | 36093 ft | 425 kts | 299° |
| 2026-04-30 21:41 | 35.36399 | 67.69650 | 36119 ft | 426 kts | 300° |
| 2026-04-30 21:42 | 35.39833 | 67.63614 | 36095 ft | 432 kts | 299° |
| 2026-04-30 21:42 | 35.43271 | 67.57577 | 36086 ft | 430 kts | 299° |
| 2026-04-30 21:43 | 35.46661 | 67.51607 | 36088 ft | 428 kts | 299° |
| 2026-04-30 21:43 | 35.50063 | 67.45604 | 36093 ft | 427 kts | 298° |
| 2026-04-30 21:44 | 35.53447 | 67.39624 | 36138 ft | 431 kts | 299° |
| 2026-04-30 21:44 | 35.56886 | 67.33521 | 36103 ft | 436 kts | 299° |
| 2026-04-30 21:45 | 35.60357 | 67.27372 | 36073 ft | 436 kts | 299° |
| 2026-04-30 21:45 | 35.63776 | 67.21301 | 36075 ft | 429 kts | 299° |
| 2026-04-30 21:46 | 35.67183 | 67.15259 | 36045 ft | 433 kts | 299° |
| 2026-04-30 21:46 | 35.70590 | 67.09164 | 36079 ft | 431 kts | 298° |
| 2026-04-30 21:47 | 35.73999 | 67.03055 | 36035 ft | 435 kts | 298° |
| 2026-04-30 21:47 | 35.77403 | 66.96984 | 36020 ft | 431 kts | 298° |
| 2026-04-30 21:48 | 35.80792 | 66.90908 | 36019 ft | 429 kts | 298° |
| 2026-04-30 21:48 | 35.84205 | 66.84808 | 36024 ft | 434 kts | 299° |
| 2026-04-30 21:49 | 35.87621 | 66.78713 | 36034 ft | 435 kts | 299° |
| 2026-04-30 21:49 | 35.91059 | 66.72550 | 36027 ft | 437 kts | 298° |
| 2026-04-30 21:50 | 35.94507 | 66.66358 | 35995 ft | 438 kts | 299° |
| 2026-04-30 21:50 | 35.97934 | 66.60197 | 36009 ft | 437 kts | 299° |
| 2026-04-30 21:51 | 36.01377 | 66.53997 | 35987 ft | 436 kts | 298° |
| 2026-04-30 21:51 | 36.04795 | 66.47829 | 36003 ft | 434 kts | 298° |
| 2026-04-30 21:52 | 36.08205 | 66.41662 | 35969 ft | 433 kts | 298° |
| 2026-04-30 21:52 | 36.11598 | 66.35517 | 35994 ft | 432 kts | 298° |
| 2026-04-30 21:53 | 36.14980 | 66.29377 | 35984 ft | 432 kts | 298° |
| 2026-04-30 21:53 | 36.18346 | 66.23259 | 35979 ft | 432 kts | 298° |
| 2026-04-30 21:54 | 36.21728 | 66.17099 | 35974 ft | 433 kts | 298° |
| 2026-04-30 21:54 | 36.25119 | 66.10911 | 35986 ft | 435 kts | 298° |
| 2026-04-30 21:55 | 36.28519 | 66.04696 | 35987 ft | 436 kts | 298° |
| 2026-04-30 21:55 | 36.31924 | 65.98457 | 35992 ft | 437 kts | 298° |
| 2026-04-30 21:56 | 36.35312 | 65.92240 | 35970 ft | 438 kts | 298° |
| 2026-04-30 21:56 | 36.38724 | 65.85968 | 35980 ft | 438 kts | 298° |
| 2026-04-30 21:57 | 36.42142 | 65.79673 | 35964 ft | 439 kts | 298° |
| 2026-04-30 21:57 | 36.45550 | 65.73384 | 35971 ft | 439 kts | 298° |
| 2026-04-30 21:58 | 36.48957 | 65.67087 | 35961 ft | 438 kts | 298° |
| 2026-04-30 21:58 | 36.52331 | 65.60837 | 35979 ft | 438 kts | 297° |
| 2026-04-30 21:59 | 36.55734 | 65.54522 | 35966 ft | 438 kts | 297° |
| 2026-04-30 22:00 | 36.60828 | 65.45046 | 35962 ft | 439 kts | 297° |
| 2026-04-30 22:00 | 36.65892 | 65.35602 | 35963 ft | 439 kts | 297° |
| 2026-04-30 22:01 | 36.69284 | 65.29260 | 35983 ft | 439 kts | 297° |
| 2026-04-30 22:01 | 36.72678 | 65.22902 | 35965 ft | 441 kts | 297° |
| 2026-04-30 22:02 | 36.76073 | 65.16531 | 35967 ft | 441 kts | 297° |
| 2026-04-30 22:02 | 36.79470 | 65.10146 | 35964 ft | 442 kts | 297° |
| 2026-04-30 22:03 | 36.82867 | 65.03746 | 35967 ft | 442 kts | 297° |
| 2026-04-30 22:03 | 36.86239 | 64.97383 | 35994 ft | 443 kts | 297° |
| 2026-04-30 22:04 | 36.89641 | 64.90948 | 35975 ft | 444 kts | 297° |
| 2026-04-30 22:05 | 36.94656 | 64.81218 | 35956 ft | 441 kts | 292° |
| 2026-04-30 22:05 | 36.97169 | 64.74292 | 35957 ft | 435 kts | 285° |
| 2026-04-30 22:06 | 36.98950 | 64.67086 | 35985 ft | 433 kts | 282° |
| 2026-04-30 22:06 | 37.01232 | 64.57479 | 35971 ft | 435 kts | 282° |
| 2026-04-30 22:07 | 37.02968 | 64.50209 | 35973 ft | 436 kts | 282° |
| 2026-04-30 22:07 | 37.04713 | 64.42908 | 35976 ft | 437 kts | 282° |
| 2026-04-30 22:08 | 37.06458 | 64.35600 | 35993 ft | 438 kts | 282° |
| 2026-04-30 22:08 | 37.08187 | 64.28337 | 35984 ft | 438 kts | 282° |
| 2026-04-30 22:09 | 37.09926 | 64.21010 | 35988 ft | 438 kts | 282° |
| 2026-04-30 22:09 | 37.11660 | 64.13679 | 35983 ft | 439 kts | 282° |
| 2026-04-30 22:10 | 37.13389 | 64.06347 | 35990 ft | 439 kts | 282° |
| 2026-04-30 22:10 | 37.15113 | 63.99012 | 35992 ft | 439 kts | 282° |
| 2026-04-30 22:11 | 37.17687 | 63.88019 | 35997 ft | 439 kts | 282° |
| 2026-04-30 22:12 | 37.19403 | 63.80661 | 36006 ft | 439 kts | 282° |
| 2026-04-30 22:12 | 37.21118 | 63.73289 | 36034 ft | 439 kts | 282° |
| 2026-04-30 22:13 | 37.22817 | 63.65957 | 36023 ft | 440 kts | 282° |
| 2026-04-30 22:13 | 37.24524 | 63.58567 | 36028 ft | 441 kts | 282° |
| 2026-04-30 22:14 | 37.26228 | 63.51172 | 36023 ft | 442 kts | 282° |
| 2026-04-30 22:14 | 37.27932 | 63.43752 | 36033 ft | 442 kts | 281° |
| 2026-04-30 22:15 | 37.29632 | 63.36328 | 36041 ft | 442 kts | 281° |
| 2026-04-30 22:15 | 37.31326 | 63.28902 | 36044 ft | 442 kts | 281° |
| 2026-04-30 22:16 | 37.33018 | 63.21462 | 36054 ft | 443 kts | 281° |
| 2026-04-30 22:17 | 37.36392 | 63.06559 | 36052 ft | 443 kts | 281° |
| 2026-04-30 22:17 | 37.38904 | 62.95399 | 36063 ft | 443 kts | 281° |
| 2026-04-30 22:18 | 37.41407 | 62.84227 | 36059 ft | 442 kts | 281° |
| 2026-04-30 22:19 | 37.43892 | 62.73073 | 36078 ft | 443 kts | 281° |
| 2026-04-30 22:20 | 37.46385 | 62.61835 | 36080 ft | 444 kts | 281° |
| 2026-04-30 22:20 | 37.48867 | 62.50591 | 36077 ft | 444 kts | 281° |
| 2026-04-30 22:21 | 37.50507 | 62.43131 | 36071 ft | 445 kts | 281° |
| 2026-04-30 22:21 | 37.52154 | 62.35613 | 36105 ft | 445 kts | 281° |
| 2026-04-30 22:22 | 37.53796 | 62.28093 | 36093 ft | 446 kts | 281° |
| 2026-04-30 22:22 | 37.55438 | 62.20544 | 36110 ft | 446 kts | 281° |
| 2026-04-30 22:23 | 37.57077 | 62.12990 | 36119 ft | 447 kts | 281° |
| 2026-04-30 22:23 | 37.58701 | 62.05475 | 36128 ft | 447 kts | 281° |
| 2026-04-30 22:24 | 37.60333 | 61.97899 | 36130 ft | 447 kts | 281° |
| 2026-04-30 22:24 | 37.61962 | 61.90318 | 36125 ft | 447 kts | 281° |
| 2026-04-30 22:25 | 37.63662 | 61.82743 | 36100 ft | 448 kts | 282° |
| 2026-04-30 22:25 | 37.65439 | 61.75200 | 36101 ft | 449 kts | 282° |
| 2026-04-30 22:26 | 37.68078 | 61.63920 | 36102 ft | 449 kts | 282° |
| 2026-04-30 22:27 | 37.69829 | 61.56350 | 36106 ft | 449 kts | 282° |
| 2026-04-30 22:27 | 37.72440 | 61.44991 | 36111 ft | 449 kts | 282° |
| 2026-04-30 22:28 | 37.75038 | 61.33635 | 36110 ft | 449 kts | 282° |
| 2026-04-30 22:29 | 37.78491 | 61.18459 | 36111 ft | 450 kts | 282° |
| 2026-04-30 22:31 | 37.84497 | 60.91825 | 36115 ft | 451 kts | 282° |
| 2026-04-30 22:32 | 37.88760 | 60.72726 | 36127 ft | 450 kts | 281° |
| 2026-04-30 22:33 | 37.92974 | 60.53691 | 36116 ft | 450 kts | 281° |
| 2026-04-30 22:35 | 37.97170 | 60.34573 | 36116 ft | 450 kts | 281° |
| 2026-04-30 22:36 | 38.01323 | 60.15489 | 36124 ft | 450 kts | 281° |
| 2026-04-30 22:37 | 38.04623 | 60.00121 | 36118 ft | 451 kts | 281° |
| 2026-04-30 22:38 | 38.07896 | 59.84776 | 36119 ft | 452 kts | 281° |
| 2026-04-30 22:39 | 38.10351 | 59.73198 | 36130 ft | 453 kts | 281° |
| 2026-04-30 22:40 | 38.15226 | 59.50027 | 36123 ft | 454 kts | 281° |
| 2026-04-30 22:41 | 38.19266 | 59.30631 | 36123 ft | 454 kts | 280° |
| 2026-04-30 22:42 | 38.22484 | 59.15062 | 36953 ft | 451 kts | 280° |
| 2026-04-30 22:43 | 38.24055 | 59.07419 | 37467 ft | 449 kts | 280° |
| 2026-04-30 22:43 | 38.25628 | 58.99741 | 38007 ft | 445 kts | 279° |
| 2026-04-30 22:44 | 38.27186 | 58.92095 | 38135 ft | 449 kts | 279° |
| 2026-04-30 22:45 | 38.31838 | 58.69130 | 38119 ft | 443 kts | 279° |
| 2026-04-30 22:47 | 38.36395 | 58.46375 | 38134 ft | 444 kts | 279° |
| 2026-04-30 22:48 | 38.39433 | 58.31096 | 38130 ft | 447 kts | 280° |
| 2026-04-30 22:49 | 38.46876 | 58.08839 | 38133 ft | 458 kts | 289° |
| 2026-04-30 22:51 | 38.54706 | 57.86657 | 38130 ft | 457 kts | 289° |
| 2026-04-30 22:52 | 38.58601 | 57.75555 | 38133 ft | 455 kts | 289° |
| 2026-04-30 22:53 | 38.63487 | 57.60698 | 38137 ft | 450 kts | 285° |
| 2026-04-30 22:53 | 38.66666 | 57.49458 | 38134 ft | 450 kts | 285° |
| 2026-04-30 22:55 | 38.71993 | 57.30672 | 38136 ft | 449 kts | 285° |
| 2026-04-30 22:56 | 38.76258 | 57.15576 | 38139 ft | 450 kts | 285° |
| 2026-04-30 22:57 | 38.81209 | 56.97943 | 38145 ft | 451 kts | 285° |
| 2026-04-30 22:58 | 38.85798 | 56.81490 | 38144 ft | 453 kts | 284° |
| 2026-04-30 22:59 | 38.91771 | 56.59920 | 38166 ft | 452 kts | 284° |